| time (UTC) | temp F | wind direction | speed knots | gust knots | rain 1hr in | rain 24hr in | rain mn in | humidity % | barometer mb |
| 20260510190504 | 73 | 255 | 2.6 | 7.0 | 0.00 | 0.20 | 0.00 | 51 | 1012.5 |
| 20260510190004 | 73 | 269 | 5.2 | 10.4 | 0.00 | 0.20 | 0.00 | 51 | 1012.5 |
| 20260510185504 | 73 | 314 | 2.6 | 7.8 | 0.00 | 0.20 | 0.00 | 53 | 1012.5 |
| 20260510185004 | 73 | 271 | 6.1 | 12.2 | 0.00 | 0.20 | 0.00 | 51 | 1012.5 |
| 20260510184504 | 73 | 276 | 5.2 | 14.8 | 0.00 | 0.20 | 0.00 | 54 | 1012.4 |
| 20260510184004 | 73 | 275 | 4.3 | 13.9 | 0.00 | 0.20 | 0.00 | 53 | 1012.5 |
| 20260510183504 | 73 | 263 | 5.2 | 13.0 | 0.00 | 0.21 | 0.00 | 53 | 1012.7 |
| 20260510182504 | 73 | 271 | 6.1 | 10.4 | 0.00 | 0.21 | 0.00 | 55 | 1012.7 |
| 20260510182004 | 73 | 282 | 2.6 | 7.0 | 0.00 | 0.21 | 0.00 | 57 | 1012.7 |
| 20260510181504 | 72 | 310 | 4.3 | 7.8 | 0.00 | 0.21 | 0.00 | 57 | 1012.6 |
| 20260510181004 | 72 | 286 | 2.6 | 13.9 | 0.00 | 0.21 | 0.00 | 59 | 1012.6 |
| 20260510180504 | 72 | 292 | 3.5 | 11.3 | 0.00 | 0.21 | 0.00 | 58 | 1012.8 |
| 20260510180004 | 72 | 287 | 4.3 | 10.4 | 0.00 | 0.21 | 0.00 | 57 | 1012.6 |
| 20260510175504 | 72 | 279 | 6.1 | 10.4 | 0.00 | 0.21 | 0.00 | 57 | 1012.6 |
| 20260510175004 | 73 | 274 | 3.5 | 10.4 | 0.00 | 0.21 | 0.00 | 57 | 1012.5 |
| 20260510174505 | 73 | 287 | 5.2 | 11.3 | 0.00 | 0.21 | 0.00 | 57 | 1012.5 |
| 20260510174004 | 73 | 270 | 5.2 | 11.3 | 0.00 | 0.21 | 0.00 | 57 | 1012.3 |
| 20260510173504 | 73 | 266 | 4.3 | 8.7 | 0.00 | 0.21 | 0.00 | 60 | 1012.4 |
| 20260510172504 | 73 | 261 | 5.2 | 10.4 | 0.00 | 0.21 | 0.00 | 57 | 1012.2 |
| 20260510172004 | 73 | 235 | 5.2 | 11.3 | 0.00 | 0.21 | 0.00 | 58 | 1012.2 |
| 20260510171504 | 73 | 263 | 4.3 | 8.7 | 0.00 | 0.21 | 0.00 | 60 | 1012.2 |
| 20260510171004 | 73 | 280 | 2.6 | 7.8 | 0.00 | 0.21 | 0.00 | 62 | 1012.2 |
| 20260510170505 | 73 | 251 | 2.6 | 7.0 | 0.00 | 0.21 | 0.00 | 61 | 1012.2 |
| 20260510170004 | 72 | 261 | 1.7 | 5.2 | 0.00 | 0.21 | 0.00 | 63 | 1012.2 |
| 20260510165004 | 71 | 246 | 1.7 | 7.0 | 0.00 | 0.21 | 0.00 | 66 | 1012.4 |
| 20260510164504 | 71 | 286 | 4.3 | 7.8 | 0.00 | 0.21 | 0.00 | 65 | 1012.3 |
| 20260510164004 | 71 | 283 | 2.6 | 10.4 | 0.00 | 0.21 | 0.00 | 66 | 1012.4 |
| 20260510163504 | 71 | 262 | 5.2 | 8.7 | 0.00 | 0.21 | 0.00 | 67 | 1012.5 |
| 20260510163004 | 71 | 239 | 3.5 | 7.0 | 0.00 | 0.21 | 0.00 | 68 | 1012.6 |
| 20260510162504 | 70 | 236 | 2.6 | 7.8 | 0.00 | 0.21 | 0.00 | 68 | 1012.6 |
| 20260510162004 | 70 | 253 | 3.5 | 7.8 | 0.00 | 0.21 | 0.00 | 69 | 1012.5 |
| 20260510161504 | 70 | 222 | 5.2 | 10.4 | 0.00 | 0.21 | 0.00 | 69 | 1012.6 |
| 20260510160504 | 69 | 220 | 0.9 | 6.1 | 0.00 | 0.21 | 0.00 | 74 | 1012.7 |
| 20260510160004 | 68 | 289 | 2.6 | 5.2 | 0.00 | 0.21 | 0.00 | 75 | 1012.8 |
| 20260510155504 | 68 | 184 | 0.9 | 2.6 | 0.00 | 0.21 | 0.00 | 77 | 1012.8 |
| 20260510155005 | 67 | 228 | 0.9 | 6.1 | 0.00 | 0.21 | 0.00 | 76 | 1012.8 |
| 20260510154505 | 67 | 228 | 3.5 | 7.8 | 0.00 | 0.22 | 0.00 | 76 | 1013.0 |
| 20260510153504 | 66 | 142 | 0.0 | 1.7 | 0.00 | 0.22 | 0.00 | 79 | 1012.9 |
| 20260510153004 | 65 | 205 | 0.0 | 4.3 | 0.00 | 0.22 | 0.00 | 79 | 1012.9 |
| 20260510152504 | 65 | 318 | 1.7 | 2.6 | 0.00 | 0.22 | 0.00 | 79 | 1013.0 |
| 20260510152004 | 65 | 245 | 2.6 | 6.1 | 0.00 | 0.22 | 0.00 | 78 | 1012.9 |
| 20260510151504 | 65 | 245 | 0.9 | 2.6 | 0.00 | 0.22 | 0.00 | 80 | 1012.9 |
| 20260510151005 | 64 | 195 | 1.7 | 2.6 | 0.00 | 0.22 | 0.00 | 81 | 1012.9 |
| 20260510150504 | 64 | 236 | 0.9 | 1.7 | 0.00 | 0.22 | 0.00 | 82 | 1012.8 |
| 20260510150004 | 63 | 83 | 0.9 | 4.3 | 0.00 | 0.22 | 0.00 | 83 | 1012.9 |
| 20260510145504 | 63 | 258 | 1.7 | 2.6 | 0.00 | 0.22 | 0.00 | 84 | 1012.8 |
| 20260510145004 | 62 | 239 | 0.9 | 2.6 | 0.00 | 0.22 | 0.00 | 85 | 1013.0 |
| 20260510144504 | 61 | 313 | 0.0 | 2.6 | 0.00 | 0.22 | 0.00 | 85 | 1013.1 |
| 20260510142504 | 59 | 236 | 0.9 | 2.6 | 0.00 | 0.22 | 0.00 | 83 | 1012.9 |
| 20260510142004 | 58 | 235 | 3.5 | 5.2 | 0.00 | 0.22 | 0.00 | 83 | 1012.9 |
| 20260510141504 | 58 | 293 | 0.0 | 1.7 | 0.00 | 0.22 | 0.00 | 82 | 1012.9 |
| 20260510141004 | 57 | 293 | 0.0 | 1.7 | 0.00 | 0.22 | 0.00 | 83 | 1012.9 |
| 20260510140504 | 57 | 297 | 0.0 | 1.7 | 0.00 | 0.22 | 0.00 | 83 | 1012.8 |
| 20260510135504 | 56 | 298 | 1.7 | 2.6 | 0.00 | 0.22 | 0.00 | 83 | 1012.7 |
| 20260510135004 | 55 | 224 | 0.0 | 2.6 | 0.00 | 0.22 | 0.00 | 83 | 1012.7 |
| 20260510134504 | 55 | 223 | 1.7 | 2.6 | 0.00 | 0.22 | 0.00 | 83 | 1012.8 |
| 20260510134004 | 55 | 234 | 0.9 | 2.6 | 0.00 | 0.22 | 0.00 | 83 | 1012.9 |
| 20260510133504 | 55 | 236 | 0.9 | 2.6 | 0.00 | 0.22 | 0.00 | 83 | 1012.8 |
| 20260510133004 | 54 | 276 | 0.9 | 6.1 | 0.00 | 0.22 | 0.00 | 83 | 1012.8 |
| 20260510132504 | 54 | 291 | 2.6 | 6.1 | 0.00 | 0.22 | 0.00 | 83 | 1012.9 |
| 20260510132004 | 54 | 260 | 1.7 | 2.6 | 0.00 | 0.22 | 0.00 | 83 | 1012.9 |
| 20260510131504 | 54 | 256 | 1.7 | 5.2 | 0.00 | 0.22 | 0.00 | 83 | 1012.9 |
| 20260510131004 | 54 | 227 | 0.9 | 2.6 | 0.00 | 0.22 | 0.00 | 83 | 1012.8 |
| 20260510130504 | 53 | 215 | 1.7 | 5.2 | 0.00 | 0.22 | 0.00 | 83 | 1012.7 |
| 20260510125504 | 53 | 285 | 0.9 | 2.6 | 0.00 | 0.22 | 0.00 | 83 | 1012.6 |
| 20260510125004 | 53 | 286 | 0.9 | 1.7 | 0.00 | 0.22 | 0.00 | 83 | 1012.5 |
| 20260510123504 | 53 | 288 | 0.9 | 1.7 | 0.00 | 0.22 | 0.00 | 83 | 1012.3 |
| 20260510123004 | 52 | 289 | 0.0 | 1.7 | 0.00 | 0.22 | 0.00 | 83 | 1012.3 |
| 20260510122504 | 52 | 289 | 0.0 | 1.7 | 0.00 | 0.22 | 0.00 | 83 | 1012.3 |
| 20260510122004 | 52 | 289 | 0.0 | 0.9 | 0.00 | 0.22 | 0.00 | 83 | 1012.3 |
| 20260510121504 | 52 | 289 | 0.0 | 0.9 | 0.00 | 0.22 | 0.00 | 83 | 1012.3 |
| 20260510121004 | 52 | 289 | 0.0 | 1.7 | 0.00 | 0.22 | 0.00 | 83 | 1012.4 |
| 20260510120504 | 52 | 289 | 0.0 | 0.9 | 0.00 | 0.22 | 0.00 | 83 | 1012.3 |
| 20260510115004 | 51 | 290 | 0.0 | 0.9 | 0.00 | 0.22 | 0.00 | 83 | 1011.9 |
| 20260510114004 | 51 | 290 | 0.0 | 0.0 | 0.00 | 0.22 | 0.00 | 83 | 1012.1 |
| 20260510113504 | 51 | 290 | 0.0 | 0.9 | 0.00 | 0.22 | 0.00 | 83 | 1012.0 |
| 20260510113004 | 51 | 290 | 0.0 | 0.9 | 0.00 | 0.22 | 0.00 | 83 | 1012.0 |
| 20260510112004 | 51 | 290 | 0.0 | 1.7 | 0.00 | 0.22 | 0.00 | 83 | 1011.9 |
| 20260510111005 | 51 | 290 | 0.0 | 0.9 | 0.00 | 0.22 | 0.00 | 83 | 1011.8 |
| 20260510110504 | 51 | 290 | 0.0 | 0.0 | 0.00 | 0.22 | 0.00 | 83 | 1011.8 |
| 20260510110005 | 51 | 290 | 0.0 | 0.9 | 0.00 | 0.22 | 0.00 | 83 | 1011.7 |
| 20260510105504 | 51 | 290 | 0.0 | 0.0 | 0.00 | 0.22 | 0.00 | 83 | 1011.7 |
| 20260510105004 | 51 | 290 | 0.0 | 0.0 | 0.00 | 0.22 | 0.00 | 83 | 1011.7 |
| 20260510104505 | 51 | 290 | 0.0 | 0.0 | 0.00 | 0.22 | 0.00 | 83 | 1011.7 |
| 20260510104004 | 52 | 290 | 0.0 | 0.0 | 0.00 | 0.22 | 0.00 | 83 | 1011.5 |
| 20260510103504 | 52 | 290 | 0.0 | 0.0 | 0.00 | 0.22 | 0.00 | 83 | 1011.6 |
| 20260510103004 | 52 | 290 | 0.0 | 0.0 | 0.00 | 0.22 | 0.00 | 83 | 1011.5 |
| 20260510102504 | 51 | 290 | 0.0 | 0.0 | 0.00 | 0.22 | 0.00 | 83 | 1011.5 |
| 20260510102004 | 51 | 290 | 0.0 | 0.0 | 0.00 | 0.22 | 0.00 | 83 | 1011.5 |
| 20260510101505 | 51 | 290 | 0.0 | 0.0 | 0.00 | 0.22 | 0.00 | 83 | 1011.2 |
| 20260510101005 | 51 | 290 | 0.0 | 0.0 | 0.00 | 0.22 | 0.00 | 83 | 1011.4 |
| 20260510100504 | 51 | 290 | 0.0 | 0.0 | 0.00 | 0.22 | 0.00 | 83 | 1011.4 |
| 20260510095504 | 51 | 290 | 0.0 | 0.0 | 0.00 | 0.22 | 0.00 | 83 | 1011.6 |
| 20260510095004 | 51 | 290 | 0.0 | 0.0 | 0.00 | 0.22 | 0.00 | 83 | 1011.6 |
| 20260510094504 | 51 | 290 | 0.0 | 0.0 | 0.00 | 0.22 | 0.00 | 83 | 1011.5 |
| 20260510094004 | 50 | 290 | 0.0 | 0.0 | 0.00 | 0.22 | 0.00 | 83 | 1011.6 |
| 20260510093504 | 50 | 290 | 0.0 | 0.0 | 0.00 | 0.22 | 0.00 | 83 | 1011.6 |
| 20260510093005 | 50 | 290 | 0.0 | 0.0 | 0.00 | 0.22 | 0.00 | 83 | 1011.3 |
| 20260510092505 | 51 | 290 | 0.0 | 0.0 | 0.00 | 0.22 | 0.00 | 83 | 1011.4 |
| 20260510092004 | 51 | 290 | 0.0 | 0.0 | 0.00 | 0.22 | 0.00 | 83 | 1011.4 |
| 20260510091504 | 51 | 290 | 0.0 | 0.0 | 0.00 | 0.22 | 0.00 | 83 | 1011.3 |
| 20260510091004 | 51 | 290 | 0.0 | 0.0 | 0.00 | 0.22 | 0.00 | 83 | 1011.5 |
| 20260510090504 | 51 | 290 | 0.0 | 0.0 | 0.00 | 0.22 | 0.00 | 83 | 1011.8 |
| 20260510090004 | 51 | 290 | 0.0 | 0.0 | 0.00 | 0.22 | 0.00 | 83 | 1011.8 |
| 20260510085004 | 51 | 290 | 0.0 | 0.0 | 0.00 | 0.22 | 0.00 | 83 | 1011.8 |
| 20260510084504 | 51 | 290 | 0.0 | 0.0 | 0.00 | 0.22 | 0.00 | 83 | 1011.8 |
| 20260510084004 | 50 | 290 | 0.0 | 0.0 | 0.00 | 0.22 | 0.00 | 84 | 1011.9 |
| 20260510083504 | 50 | 290 | 0.0 | 0.9 | 0.00 | 0.22 | 0.00 | 84 | 1011.8 |
| 20260510083004 | 50 | 290 | 0.0 | 0.0 | 0.00 | 0.22 | 0.00 | 84 | 1011.8 |
| 20260510082003 | 50 | 290 | 0.0 | 0.0 | 0.00 | 0.22 | 0.00 | 84 | 1011.8 |
| 20260510081504 | 50 | 290 | 0.9 | 2.6 | 0.00 | 0.22 | 0.00 | 84 | 1011.7 |
| 20260510081004 | 50 | 25 | 0.9 | 2.6 | 0.00 | 0.22 | 0.00 | 84 | 1011.6 |
| 20260510080504 | 50 | 54 | 0.9 | 2.6 | 0.00 | 0.22 | 0.00 | 84 | 1011.2 |
| 20260510080004 | 50 | 53 | 0.9 | 7.0 | 0.00 | 0.22 | 0.00 | 84 | 1010.9 |
| 20260510075504 | 50 | 307 | 1.7 | 2.6 | 0.00 | 0.22 | 0.00 | 84 | 1010.9 |
| 20260510075004 | 51 | 273 | 0.0 | 0.0 | 0.00 | 0.22 | 0.00 | 84 | 1010.8 |
| 20260510074504 | 50 | 273 | 0.0 | 0.0 | 0.00 | 0.22 | 0.00 | 84 | 1010.8 |
| 20260510073504 | 50 | 273 | 0.0 | 0.0 | 0.00 | 0.22 | 0.00 | 84 | 1010.8 |
| 20260510073005 | 50 | 273 | 0.0 | 0.0 | 0.00 | 0.22 | 0.00 | 84 | 1010.7 |
| 20260510072504 | 50 | 273 | 0.0 | 0.0 | 0.00 | 0.22 | 0.00 | 84 | 1010.8 |
| 20260510072004 | 51 | 273 | 0.0 | 0.0 | 0.00 | 0.22 | 0.00 | 84 | 1010.7 |
| 20260510071504 | 51 | 273 | 0.0 | 0.0 | 0.00 | 0.22 | 0.00 | 84 | 1010.8 |
| 20260510071004 | 51 | 273 | 0.0 | 0.0 | 0.00 | 0.22 | 0.00 | 84 | 1010.8 |
| 20260510070504 | 51 | 273 | 0.0 | 0.0 | 0.00 | 0.22 | 0.00 | 84 | 1010.9 |
| 20260510070005 | 51 | 273 | 0.0 | 0.0 | 0.00 | 0.22 | 0.00 | 84 | 1010.8 |
| 20260510065504 | 51 | 273 | 0.0 | 0.0 | 0.00 | 0.22 | 0.00 | 84 | 1010.9 |
| 20260510065004 | 51 | 273 | 0.0 | 0.0 | 0.00 | 0.22 | 0.00 | 84 | 1011.0 |
| 20260510064504 | 51 | 273 | 0.0 | 0.0 | 0.00 | 0.22 | 0.00 | 84 | 1011.0 |
| 20260510064004 | 51 | 273 | 0.0 | 0.0 | 0.00 | 0.22 | 0.00 | 84 | 1010.9 |
| 20260510063004 | 50 | 273 | 0.0 | 0.0 | 0.00 | 0.22 | 0.00 | 84 | 1011.0 |
| 20260510062005 | 50 | 273 | 0.0 | 0.9 | 0.00 | 0.22 | 0.00 | 84 | 1010.9 |
| 20260510061504 | 50 | 273 | 0.9 | 2.6 | 0.00 | 0.22 | 0.00 | 84 | 1010.8 |
| 20260510061004 | 50 | 196 | 0.0 | 0.9 | 0.00 | 0.22 | 0.00 | 84 | 1010.8 |
| 20260510060504 | 50 | 196 | 0.0 | 1.7 | 0.00 | 0.22 | 0.00 | 84 | 1010.7 |
| 20260510060004 | 50 | 193 | 0.0 | 0.0 | 0.00 | 0.22 | 0.00 | 84 | 1010.6 |
| 20260510055504 | 50 | 193 | 0.0 | 0.9 | 0.00 | 0.22 | 0.00 | 84 | 1010.7 |
| 20260510055004 | 50 | 173 | 0.0 | 0.9 | 0.00 | 0.22 | 0.00 | 84 | 1010.8 |
| 20260510054504 | 50 | 173 | 0.9 | 1.7 | 0.00 | 0.22 | 0.00 | 84 | 1010.7 |
| 20260510054004 | 50 | 173 | 0.0 | 0.9 | 0.00 | 0.22 | 0.00 | 84 | 1010.8 |
| 20260510053504 | 50 | 173 | 0.0 | 0.0 | 0.00 | 0.22 | 0.00 | 84 | 1010.8 |
| 20260510053004 | 50 | 173 | 0.0 | 0.0 | 0.00 | 0.22 | 0.00 | 84 | 1010.8 |
| 20260510052503 | 50 | 173 | 0.0 | 0.0 | 0.00 | 0.22 | 0.00 | 84 | 1010.7 |
| 20260510052004 | 50 | 173 | 0.0 | 0.0 | 0.00 | 0.22 | 0.00 | 85 | 1010.7 |
| 20260510051504 | 50 | 173 | 0.0 | 0.0 | 0.00 | 0.22 | 0.00 | 85 | 1010.8 |
| 20260510051004 | 50 | 173 | 0.0 | 0.0 | 0.00 | 0.22 | 0.00 | 84 | 1010.8 |
| 20260510050504 | 50 | 173 | 0.0 | 0.0 | 0.00 | 0.22 | 0.00 | 85 | 1010.9 |
| 20260510050004 | 50 | 173 | 0.0 | 0.9 | 0.00 | 0.22 | 0.00 | 85 | 1011.0 |
| 20260510045504 | 49 | 173 | 0.0 | 0.9 | 0.00 | 0.22 | 0.00 | 84 | 1010.9 |
| 20260510045004 | 49 | 173 | 0.0 | 0.9 | 0.00 | 0.22 | 0.00 | 85 | 1010.9 |
| 20260510044504 | 49 | 173 | 0.0 | 0.9 | 0.01 | 0.22 | 0.00 | 85 | 1010.9 |
| 20260510044004 | 49 | 173 | 0.0 | 0.0 | 0.01 | 0.22 | 0.00 | 85 | 1010.9 |
| 20260510043504 | 49 | 173 | 0.0 | 0.0 | 0.01 | 0.22 | 0.00 | 85 | 1011.0 |
| 20260510043004 | 49 | 173 | 0.0 | 0.0 | 0.01 | 0.22 | 0.00 | 85 | 1011.0 |
| 20260510042504 | 49 | 173 | 0.0 | 0.0 | 0.01 | 0.22 | 0.00 | 85 | 1011.1 |
| 20260510042004 | 49 | 173 | 0.0 | 0.0 | 0.01 | 0.22 | 0.00 | 85 | 1011.1 |
| 20260510041004 | 49 | 173 | 0.0 | 0.0 | 0.01 | 0.22 | 0.00 | 85 | 1011.0 |
| 20260510040504 | 49 | 173 | 0.0 | 0.0 | 0.01 | 0.22 | 0.00 | 85 | 1010.9 |
| 20260510040005 | 49 | 173 | 0.0 | 0.0 | 0.01 | 0.22 | 0.00 | 85 | 1010.9 |
| 20260510035504 | 49 | 173 | 0.0 | 0.0 | 0.01 | 0.22 | 0.22 | 85 | 1010.8 |
| 20260510035004 | 49 | 173 | 0.0 | 0.0 | 0.01 | 0.22 | 0.22 | 85 | 1010.9 |
| 20260510034504 | 49 | 173 | 0.0 | 0.0 | 0.00 | 0.21 | 0.21 | 85 | 1010.9 |
| 20260510034004 | 49 | 173 | 0.0 | 0.0 | 0.00 | 0.21 | 0.21 | 85 | 1010.8 |
| 20260510033504 | 49 | 173 | 0.0 | 0.0 | 0.00 | 0.21 | 0.21 | 85 | 1010.7 |
| 20260510033004 | 49 | 173 | 0.0 | 0.0 | 0.00 | 0.21 | 0.21 | 85 | 1010.7 |
| 20260510032504 | 49 | 173 | 0.0 | 0.0 | 0.00 | 0.21 | 0.21 | 85 | 1010.6 |
| 20260510030504 | 50 | 173 | 0.0 | 0.0 | 0.00 | 0.21 | 0.21 | 85 | 1010.5 |
| 20260510030004 | 50 | 173 | 0.0 | 0.0 | 0.00 | 0.21 | 0.21 | 85 | 1010.5 |
| 20260510025504 | 50 | 173 | 0.0 | 0.0 | 0.00 | 0.21 | 0.21 | 85 | 1010.6 |
| 20260510025005 | 51 | 173 | 0.0 | 0.0 | 0.00 | 0.21 | 0.21 | 85 | 1010.5 |
| 20260510024004 | 51 | 173 | 0.0 | 0.0 | 0.00 | 0.21 | 0.21 | 85 | 1010.6 |
| 20260510023504 | 51 | 173 | 0.0 | 0.0 | 0.00 | 0.21 | 0.21 | 85 | 1010.6 |
| 20260510023004 | 51 | 173 | 0.0 | 0.0 | 0.00 | 0.21 | 0.21 | 85 | 1010.6 |
| 20260510022504 | 52 | 173 | 0.0 | 0.0 | 0.00 | 0.21 | 0.21 | 85 | 1010.7 |
| 20260510022004 | 51 | 173 | 0.0 | 0.0 | 0.00 | 0.21 | 0.21 | 85 | 1010.8 |
| 20260510021504 | 51 | 173 | 0.0 | 0.0 | 0.00 | 0.21 | 0.21 | 85 | 1010.8 |
| 20260510021004 | 51 | 173 | 0.0 | 0.0 | 0.00 | 0.21 | 0.21 | 85 | 1010.8 |
| 20260510020504 | 52 | 173 | 0.0 | 0.0 | 0.00 | 0.21 | 0.21 | 85 | 1010.9 |
| 20260510015504 | 52 | 173 | 0.0 | 0.0 | 0.00 | 0.21 | 0.21 | 85 | 1010.7 |
| 20260510015004 | 52 | 173 | 0.0 | 0.0 | 0.00 | 0.21 | 0.21 | 85 | 1010.6 |
| 20260510014504 | 52 | 173 | 0.0 | 0.0 | 0.00 | 0.21 | 0.21 | 85 | 1010.6 |
| 20260510013504 | 53 | 173 | 0.0 | 0.0 | 0.00 | 0.21 | 0.21 | 85 | 1010.7 |
| 20260510011004 | 54 | 173 | 0.0 | 0.0 | 0.00 | 0.21 | 0.21 | 85 | 1010.5 |
| 20260510010504 | 54 | 173 | 0.0 | 0.0 | 0.00 | 0.21 | 0.21 | 85 | 1010.4 |
| 20260510010004 | 54 | 173 | 0.0 | 0.0 | 0.00 | 0.21 | 0.21 | 85 | 1010.3 |
| 20260510005504 | 54 | 173 | 0.0 | 0.0 | 0.00 | 0.21 | 0.21 | 84 | 1010.2 |
| 20260510005004 | 54 | 173 | 0.0 | 0.0 | 0.00 | 0.21 | 0.21 | 84 | 1010.2 |
| 20260510004004 | 55 | 173 | 0.0 | 0.0 | 0.00 | 0.21 | 0.21 | 84 | 1010.0 |
| 20260510003504 | 55 | 173 | 0.0 | 0.0 | 0.00 | 0.21 | 0.21 | 84 | 1009.9 |
| 20260510003005 | 55 | 173 | 0.0 | 0.0 | 0.00 | 0.21 | 0.21 | 84 | 1009.8 |
| 20260510002504 | 55 | 173 | 0.0 | 0.0 | 0.00 | 0.21 | 0.21 | 84 | 1009.9 |
| 20260510002004 | 55 | 173 | 0.0 | 0.0 | 0.00 | 0.21 | 0.21 | 84 | 1009.9 |
| 20260510001504 | 55 | 173 | 0.0 | 0.0 | 0.00 | 0.21 | 0.21 | 85 | 1010.0 |
| 20260510001004 | 55 | 173 | 0.0 | 0.0 | 0.00 | 0.21 | 0.21 | 85 | 1010.1 |
| 20260510000505 | 55 | 173 | 0.0 | 0.9 | 0.00 | 0.21 | 0.21 | 84 | 1010.2 |
| 20260509235504 | 55 | 173 | 0.0 | 0.0 | 0.00 | 0.21 | 0.21 | 84 | 1010.1 |
| 20260509235004 | 55 | 173 | 0.0 | 0.0 | 0.00 | 0.21 | 0.21 | 84 | 1009.9 |
| 20260509234504 | 56 | 173 | 0.0 | 0.0 | 0.00 | 0.21 | 0.21 | 84 | 1009.8 |
| 20260509233504 | 56 | 173 | 0.0 | 0.0 | 0.00 | 0.21 | 0.21 | 84 | 1009.8 |
| 20260509233004 | 56 | 173 | 0.0 | 0.0 | 0.00 | 0.21 | 0.21 | 84 | 1009.8 |
| 20260509232004 | 56 | 173 | 0.0 | 0.0 | 0.00 | 0.21 | 0.21 | 83 | 1009.6 |
| 20260509231504 | 55 | 173 | 0.0 | 0.0 | 0.00 | 0.21 | 0.21 | 84 | 1009.7 |
| 20260509231004 | 55 | 173 | 0.0 | 1.7 | 0.00 | 0.21 | 0.21 | 84 | 1009.8 |
| 20260509230504 | 55 | 173 | 0.0 | 1.7 | 0.00 | 0.21 | 0.21 | 84 | 1009.8 |
| 20260509230004 | 55 | 263 | 0.0 | 2.6 | 0.00 | 0.21 | 0.21 | 84 | 1009.7 |
| 20260509225504 | 55 | 209 | 0.9 | 2.6 | 0.00 | 0.21 | 0.21 | 84 | 1009.7 |
| 20260509224504 | 55 | 114 | 0.0 | 2.6 | 0.00 | 0.21 | 0.21 | 84 | 1009.7 |
| 20260509224004 | 55 | 145 | 0.0 | 5.2 | 0.00 | 0.21 | 0.21 | 84 | 1009.9 |
| 20260509223504 | 55 | 184 | 0.9 | 2.6 | 0.00 | 0.21 | 0.21 | 84 | 1010.1 |
| 20260509223005 | 55 | 127 | 0.0 | 0.9 | 0.00 | 0.21 | 0.21 | 84 | 1010.2 |
| 20260509222504 | 55 | 127 | 0.0 | 0.9 | 0.00 | 0.21 | 0.21 | 84 | 1010.2 |
| 20260509221504 | 55 | 126 | 0.0 | 1.7 | 0.01 | 0.21 | 0.21 | 84 | 1010.1 |
| 20260509220504 | 55 | 126 | 0.0 | 0.9 | 0.04 | 0.21 | 0.21 | 84 | 1010.1 |
| 20260509220005 | 55 | 126 | 0.0 | 0.9 | 0.05 | 0.21 | 0.21 | 84 | 1010.1 |
| 20260509215504 | 55 | 126 | 0.0 | 0.9 | 0.05 | 0.21 | 0.21 | 84 | 1010.1 |
| 20260509215004 | 55 | 127 | 0.0 | 1.7 | 0.05 | 0.21 | 0.21 | 84 | 1010.1 |
| 20260509214504 | 55 | 134 | 0.0 | 1.7 | 0.06 | 0.21 | 0.21 | 84 | 1010.1 |
| 20260509213504 | 55 | 166 | 0.0 | 0.9 | 0.07 | 0.21 | 0.21 | 84 | 1010.3 |
| 20260509213005 | 55 | 74 | 0.9 | 1.7 | 0.08 | 0.21 | 0.21 | 85 | 1010.2 |
| 20260509212004 | 55 | 73 | 0.0 | 0.9 | 0.08 | 0.21 | 0.21 | 85 | 1010.0 |
| 20260509211504 | 55 | 8 | 0.0 | 0.9 | 0.08 | 0.20 | 0.20 | 85 | 1010.3 |
| 20260509211004 | 55 | 312 | 0.0 | 0.0 | 0.06 | 0.18 | 0.18 | 85 | 1010.1 |
| 20260509210004 | 55 | 312 | 0.0 | 0.0 | 0.04 | 0.16 | 0.16 | 85 | 1010.2 |
| 20260509205504 | 55 | 309 | 0.0 | 0.0 | 0.05 | 0.16 | 0.16 | 85 | 1010.3 |
| 20260509204504 | 55 | 311 | 0.0 | 0.0 | 0.05 | 0.15 | 0.15 | 85 | 1010.0 |
| 20260509204004 | 55 | 311 | 0.0 | 0.9 | 0.06 | 0.15 | 0.15 | 85 | 1009.9 |
| 20260509203504 | 56 | 311 | 0.0 | 2.6 | 0.05 | 0.14 | 0.14 | 85 | 1010.1 |
| 20260509203004 | 56 | 307 | 0.0 | 0.9 | 0.05 | 0.13 | 0.13 | 85 | 1010.1 |
| 20260509202504 | 55 | 307 | 0.9 | 1.7 | 0.06 | 0.13 | 0.13 | 85 | 1010.1 |
| 20260509202005 | 55 | 268 | 0.0 | 1.7 | 0.08 | 0.13 | 0.13 | 85 | 1010.3 |
| 20260509201504 | 56 | 248 | 0.0 | 0.0 | 0.08 | 0.12 | 0.12 | 85 | 1010.3 |
| 20260509201004 | 56 | 248 | 0.0 | 0.0 | 0.08 | 0.12 | 0.12 | 85 | 1010.3 |
| 20260509200504 | 56 | 248 | 0.0 | 1.7 | 0.09 | 0.12 | 0.12 | 85 | 1010.6 |
| 20260509200004 | 56 | 287 | 0.0 | 0.0 | 0.09 | 0.12 | 0.12 | 85 | 1010.6 |
| 20260509195505 | 56 | 287 | 0.0 | 0.0 | 0.08 | 0.11 | 0.11 | 85 | 1010.8 |
| 20260509195004 | 56 | 287 | 0.0 | 1.7 | 0.09 | 0.11 | 0.11 | 85 | 1010.8 |
| 20260509194504 | 56 | 288 | 0.9 | 2.6 | 0.08 | 0.10 | 0.10 | 85 | 1010.8 |
| 20260509194005 | 55 | 288 | 0.0 | 0.0 | 0.07 | 0.09 | 0.09 | 85 | 1010.8 |
| 20260509193504 | 55 | 288 | 0.0 | 0.9 | 0.07 | 0.09 | 0.09 | 85 | 1010.8 |
| 20260509193004 | 56 | 289 | 1.7 | 4.3 | 0.06 | 0.08 | 0.08 | 85 | 1010.8 |
| 20260509192504 | 56 | 241 | 2.6 | 5.2 | 0.05 | 0.07 | 0.07 | 85 | 1010.8 |
| 20260509192004 | 56 | 259 | 1.7 | 5.2 | 0.03 | 0.05 | 0.05 | 85 | 1010.6 |
| 20260509191504 | 56 | 295 | 2.6 | 2.6 | 0.02 | 0.04 | 0.04 | 84 | 1010.7 |
| 20260509191004 | 56 | 285 | 1.7 | 5.2 | 0.02 | 0.04 | 0.04 | 84 | 1010.8 |